Terminal Aerodrome Forecast
Issued by NWS

Home | Current Version | Previous Version | Text Only | Print | Product List | Glossary On
Versions: 1 2 3 4 5 6 7 8 9 10 11 12 13
610
FTPA31 PHFO 151739
TAFHLI
TAF
PHLI 151739Z 1518/1618 03020G25KT P6SM VCSH SCT030 BKN045
     FM160000 01020G25KT P6SM VCSH SCT030 BKN045
     FM160400 36014G20KT P6SM VCSH BKN025 BKN045
     FM161000 36011KT 6SM -SHRA BKN025 OVC045=

USA.gov is the U.S. government's official web portal to all federal, state and local government web resources and services.